Terminal Aerodrome Forecast
Issued by NWS St Louis, MO

Home | Current Version | Previous Version | Text Only | Print | Product List | Glossary On
Versions: 1 2 3 4 5 6 7 8 9 10 11 12 13 14 15 16 17 18 19 20 21 22
355
FTUS43 KLSX 120535
TAFCOU
TAF
KCOU 120535Z 1206/1306 10006KT 3SM -SN OVC030
     FM120700 09006KT P6SM OVC040
     FM121400 35005KT P6SM BKN025
     FM121900 33014G22KT P6SM SCT030=

USA.gov is the U.S. government's official web portal to all federal, state and local government web resources and services.